Time;durP1;ratioP1;P1;durP2;ratioP2;P2;SDS_P1;SDS_P2;PMS_P1;PMS_P2;Temp;Humidity;BMP_temperature;BMP_pressure;BME280_temperature;BME280_humidity;BME280_pressure;Samples;Min_cycle;Max_cycle;Signal;HPM_P1;HPM_P2
2020/12/19 00:00:27;;;;;;;;;;;;;;;-0.76;100.00;93400.53;1063670;55;20169;-84
2020/12/19 00:01:30;;;;;;;;;;;;;;;-0.77;100.00;93403.50;1065829;55;20594;-85
2020/12/19 00:02:31;;;;;;;;;;;;;;;-0.80;100.00;93399.66;1067801;55;20165;-84
2020/12/19 00:03:32;;;;;;;;;;;;;;;-0.85;100.00;93401.78;1068036;55;20205;-84
2020/12/19 00:04:34;;;;;;;;;;;;;;;-0.81;100.00;93397.41;1070119;55;20260;-86
2020/12/19 00:05:34;;;;;;;;;;;;;;;-0.80;100.00;93399.66;1065850;55;20157;-85
2020/12/19 00:06:35;;;;;;;;;;;;;;;-0.83;100.00;93399.59;1065783;55;20173;-84
2020/12/19 00:07:36;;;;;;;;;;;;;;;-0.88;100.00;93397.19;1065725;55;20157;-85
2020/12/19 00:08:37;;;;;;;;;;;;;;;-0.89;100.00;93395.69;1065822;55;20177;-83
2020/12/19 00:09:38;;;;;;;;;;;;;;;-0.84;100.00;93395.44;1065971;55;20367;-83
2020/12/19 00:10:38;;;;;;;;;;;;;;;-0.83;100.00;93394.34;1065641;55;21125;-83
2020/12/19 00:11:42;;;;;;;;;;;;;;;-0.80;100.00;93397.03;1065852;55;20180;-83
2020/12/19 00:12:45;;;;;;;;;;;;;;;-0.80;100.00;93391.03;1065962;55;20177;-84
2020/12/19 00:13:47;;;;;;;;;;;;;;;-0.79;100.00;93390.72;1063714;55;20172;-84
2020/12/19 00:14:49;;;;;;;;;;;;;;;-0.82;100.00;93380.88;1061709;56;20181;-84
2020/12/19 00:15:49;;;;;;;;;;;;;;;-0.84;100.00;93379.69;1062056;56;20190;-83
2020/12/19 00:16:50;;;;;;;;;;;;;;;-0.80;100.00;93383.16;1061633;56;20171;-84
2020/12/19 00:17:50;;;;;;;;;;;;;;;-0.82;100.00;93382.75;1060716;56;20257;-85
2020/12/19 00:18:51;;;;;;;;;;;;;;;-0.88;100.00;93381.47;1064289;55;20161;-85
2020/12/19 00:19:51;;;;;;;;;;;;;;;-0.88;100.00;93378.84;1063582;55;20158;-85
2020/12/19 00:20:52;;;;;;;;;;;;;;;-0.90;100.00;93376.56;1063824;55;20147;-86
2020/12/19 00:21:54;;;;;;;;;;;;;;;-0.91;100.00;93382.16;1065745;55;20173;-83
2020/12/19 00:22:54;;;;;;;;;;;;;;;-0.81;100.00;93374.53;1065767;55;20169;-82
2020/12/19 00:23:55;;;;;;;;;;;;;;;-0.85;100.00;93376.31;1068350;55;20179;-82
2020/12/19 00:24:57;;;;;;;;;;;;;;;-0.91;100.00;93375.03;1065929;55;20189;-82
2020/12/19 00:25:57;;;;;;;;;;;;;;;-0.90;100.00;93378.41;1063772;55;20173;-83
2020/12/19 00:26:58;;;;;;;;;;;;;;;-0.89;100.00;93375.44;1061752;56;20192;-83
2020/12/19 00:28:01;;;;;;;;;;;;;;;-0.91;100.00;93379.53;1059492;56;20170;-85
2020/12/19 00:29:02;;;;;;;;;;;;;;;-0.92;100.00;93370.09;1063916;55;20162;-84
2020/12/19 00:30:04;;;;;;;;;;;;;;;-0.91;100.00;93375.03;1065864;55;20161;-83
2020/12/19 00:31:04;;;;;;;;;;;;;;;-0.87;100.00;93380.38;1063757;55;20193;-83
2020/12/19 00:32:05;;;;;;;;;;;;;;;-0.83;100.00;93371.50;1061629;56;20190;-84
2020/12/19 00:33:06;;;;;;;;;;;;;;;-0.84;100.00;93372.56;1065858;55;20173;-85
2020/12/19 00:34:10;;;;;;;;;;;;;;;-0.82;100.00;93369.63;1068094;55;20271;-85
2020/12/19 00:35:11;;;;;;;;;;;;;;;-0.79;100.00;93376.81;1065861;55;20589;-86
2020/12/19 00:36:13;;;;;;;;;;;;;;;-0.67;100.00;93375.97;1066187;55;20637;-85
2020/12/19 00:37:13;;;;;;;;;;;;;;;-0.64;100.00;93383.94;1065853;55;20185;-84
2020/12/19 00:38:14;;;;;;;;;;;;;;;-0.62;100.00;93376.50;1065903;55;20172;-83
2020/12/19 00:39:17;;;;;;;;;;;;;;;-0.58;100.00;93379.22;1066030;55;20622;-83
2020/12/19 00:40:18;;;;;;;;;;;;;;;-0.55;100.00;93379.28;1063147;55;20275;-83
2020/12/19 00:41:19;;;;;;;;;;;;;;;-0.53;100.00;93378.94;1065914;55;20222;-84
2020/12/19 00:42:20;;;;;;;;;;;;;;;-0.54;100.00;93369.56;1065962;55;20652;-83
2020/12/19 00:43:20;;;;;;;;;;;;;;;-0.56;100.00;93377.03;1065840;55;20162;-84
2020/12/19 00:44:21;;;;;;;;;;;;;;;-0.57;100.00;93373.62;1065838;55;20180;-84
2020/12/19 00:45:21;;;;;;;;;;;;;;;-0.60;100.00;93366.44;1067880;55;20261;-84
2020/12/19 00:46:22;;;;;;;;;;;;;;;-0.56;100.00;93369.13;1066038;55;20142;-85
2020/12/19 00:47:23;;;;;;;;;;;;;;;-0.52;100.00;93364.75;1065704;55;20646;-86
2020/12/19 00:48:23;;;;;;;;;;;;;;;-0.55;100.00;93368.03;1065759;55;20585;-84
2020/12/19 00:49:24;;;;;;;;;;;;;;;-0.54;100.00;93364.31;1065799;55;20192;-84
2020/12/19 00:50:24;;;;;;;;;;;;;;;-0.56;100.00;93369.13;1065929;55;20166;-83
2020/12/19 00:51:25;;;;;;;;;;;;;;;-0.58;100.00;93358.97;1065798;55;20164;-85
2020/12/19 00:52:25;;;;;;;;;;;;;;;-0.59;100.00;93356.69;1067952;55;20185;-84
2020/12/19 00:53:26;;;;;;;;;;;;;;;-0.59;100.00;93354.81;1068057;55;20172;-85
2020/12/19 00:54:26;;;;;;;;;;;;;;;-0.59;100.00;93365.31;1065849;55;20251;-84
2020/12/19 00:55:27;;;;;;;;;;;;;;;-0.59;100.00;93361.94;1065896;55;20290;-85
2020/12/19 00:56:28;;;;;;;;;;;;;;;-0.64;100.00;93360.31;1065722;55;20319;-85
2020/12/19 00:57:29;;;;;;;;;;;;;;;-0.60;100.00;93358.56;1065956;55;20306;-84
2020/12/19 00:58:31;;;;;;;;;;;;;;;-0.64;100.00;93360.31;1068138;55;20258;-85
2020/12/19 00:59:32;;;;;;;;;;;;;;;-0.69;100.00;93363.22;1067984;55;21136;-86
2020/12/19 01:00:32;;;;;;;;;;;;;;;-0.67;100.00;93360.22;1068141;55;20153;-84
2020/12/19 01:01:33;;;;;;;;;;;;;;;-0.71;100.00;93362.78;1065917;55;20192;-84
2020/12/19 01:02:35;;;;;;;;;;;;;;;-0.74;100.00;93352.22;1067980;55;20653;-84
2020/12/19 01:03:35;;;;;;;;;;;;;;;-0.76;100.00;93353.28;1067883;55;20180;-84
2020/12/19 01:04:36;;;;;;;;;;;;;;;-0.78;100.00;93358.12;1065880;55;20184;-85
2020/12/19 01:05:37;;;;;;;;;;;;;;;-0.86;100.00;93350.41;1065968;55;20193;-84
2020/12/19 01:06:38;;;;;;;;;;;;;;;-0.90;100.00;93352.94;1065847;55;20610;-85
2020/12/19 01:07:41;;;;;;;;;;;;;;;-0.83;100.00;93358.38;1063909;55;20180;-84
2020/12/19 01:08:45;;;;;;;;;;;;;;;-0.73;100.00;93356.34;1064040;55;20161;-85
2020/12/19 01:09:47;;;;;;;;;;;;;;;-0.78;100.00;93354.75;1065899;55;20175;-83
2020/12/19 01:10:47;;;;;;;;;;;;;;;-0.74;100.00;93354.84;1067431;55;20177;-83
2020/12/19 01:11:50;;;;;;;;;;;;;;;-0.73;100.00;93345.84;1068006;55;20160;-83
2020/12/19 01:12:51;;;;;;;;;;;;;;;-0.74;100.00;93357.47;1065827;55;20617;-83
2020/12/19 01:13:52;;;;;;;;;;;;;;;-0.74;100.00;93355.59;1065906;55;20574;-84
2020/12/19 01:14:52;;;;;;;;;;;;;;;-0.69;100.00;93350.09;1070487;55;20168;-84
2020/12/19 01:15:53;;;;;;;;;;;;;;;-0.71;100.00;93352.28;1068002;55;20173;-85
2020/12/19 01:16:53;;;;;;;;;;;;;;;-0.81;100.00;93353.53;1067926;55;20169;-84
2020/12/19 01:17:54;;;;;;;;;;;;;;;-0.77;100.00;93359.66;1065775;55;20166;-83
2020/12/19 01:18:57;;;;;;;;;;;;;;;-0.80;100.00;93357.69;1063630;55;20173;-84
2020/12/19 01:19:59;;;;;;;;;;;;;;;-0.83;100.00;93352.38;1065833;55;20238;-83
2020/12/19 01:21:00;;;;;;;;;;;;;;;-0.85;100.00;93359.81;1063812;55;20162;-85
2020/12/19 01:22:01;;;;;;;;;;;;;;;-0.83;100.00;93355.75;1063789;55;20646;-84
2020/12/19 01:23:01;;;;;;;;;;;;;;;-0.77;100.00;93357.03;1065676;55;20240;-83
2020/12/19 01:24:02;;;;;;;;;;;;;;;-0.77;100.00;93351.78;1065873;55;21102;-84
2020/12/19 01:25:02;;;;;;;;;;;;;;;-0.81;100.00;93350.91;1065879;55;20172;-84
2020/12/19 01:26:03;;;;;;;;;;;;;;;-0.84;100.00;93348.19;1065721;55;20158;-84
2020/12/19 01:27:04;;;;;;;;;;;;;;;-0.88;100.00;93350.75;1068160;55;20184;-85
2020/12/19 01:28:06;;;;;;;;;;;;;;;-0.87;100.00;93348.91;1068089;55;20161;-84
2020/12/19 01:29:08;;;;;;;;;;;;;;;-0.89;100.00;93358.94;1065906;55;20168;-85
2020/12/19 01:30:09;;;;;;;;;;;;;;;-0.85;100.00;93357.19;1068135;55;20196;-84
2020/12/19 01:31:12;;;;;;;;;;;;;;;-0.87;100.00;93351.53;1065920;55;20150;-86
2020/12/19 01:32:13;;;;;;;;;;;;;;;-0.89;100.00;93351.84;1064019;55;20181;-84
2020/12/19 01:33:14;;;;;;;;;;;;;;;-0.90;100.00;93349.56;1067998;55;20157;-84
2020/12/19 01:34:14;;;;;;;;;;;;;;;-0.82;100.00;93353.88;1067949;55;20161;-85
2020/12/19 01:35:16;;;;;;;;;;;;;;;-0.85;100.00;93357.19;1065831;55;20245;-84
2020/12/19 01:36:25;;;;;;;;;;;;;;;-0.89;100.00;93351.06;1065945;55;20165;-85
2020/12/19 01:37:26;;;;;;;;;;;;;;;-0.91;100.00;93350.66;1066164;55;20180;-85
2020/12/19 01:38:26;;;;;;;;;;;;;;;-0.93;100.00;93351.00;1066016;55;20184;-84
2020/12/19 01:39:27;;;;;;;;;;;;;;;-0.97;100.00;93357.25;1065842;55;20270;-84
2020/12/19 01:40:27;;;;;;;;;;;;;;;-0.97;100.00;93362.50;1065908;55;20180;-84
2020/12/19 01:41:28;;;;;;;;;;;;;;;-1.04;100.00;93361.22;1065813;55;20180;-84
2020/12/19 01:42:28;;;;;;;;;;;;;;;-1.02;100.00;93359.00;1063945;55;20181;-84
2020/12/19 01:43:41;;;;;;;;;;;;;;;-0.99;100.00;93364.69;1063715;55;20149;-86
2020/12/19 01:44:44;;;;;;;;;;;;;;;-0.99;100.00;93349.72;1064194;55;20209;-85
2020/12/19 01:45:45;;;;;;;;;;;;;;;-1.07;100.00;93356.63;1061762;56;20158;-84
2020/12/19 01:46:59;;;;;;;;;;;;;;;-1.06;100.00;93352.91;1061434;56;20189;-83
2020/12/19 01:48:06;;;;;;;;;;;;;;;-1.12;100.00;93354.28;1064753;55;20189;-85
2020/12/19 01:49:07;;;;;;;;;;;;;;;-1.15;100.00;93347.06;1066040;55;20247;-85
2020/12/19 01:50:12;;;;;;;;;;;;;;;-1.14;100.00;93348.59;1066035;55;20642;-85
2020/12/19 01:51:12;;;;;;;;;;;;;;;-1.14;100.00;93342.56;1068047;55;20192;-86
2020/12/19 01:52:13;;;;;;;;;;;;;;;-1.10;100.00;93340.81;1067983;55;21289;-85
2020/12/19 01:53:15;;;;;;;;;;;;;;;-0.99;100.00;93346.34;1065926;55;20169;-84
2020/12/19 01:54:20;;;;;;;;;;;;;;;-1.07;100.00;93343.53;1063927;55;20721;-85
2020/12/19 01:55:20;;;;;;;;;;;;;;;-1.10;100.00;93346.06;1063932;55;20166;-84
2020/12/19 01:56:24;;;;;;;;;;;;;;;-1.12;100.00;93351.66;1066029;55;20637;-84
2020/12/19 01:57:26;;;;;;;;;;;;;;;-1.14;100.00;93351.22;1067967;55;20153;-84
2020/12/19 01:58:29;;;;;;;;;;;;;;;-1.13;100.00;93349.38;1066079;55;20161;-86
2020/12/19 01:59:32;;;;;;;;;;;;;;;-1.16;100.00;93350.78;1068231;55;20983;-85
2020/12/19 02:00:35;;;;;;;;;;;;;;;-1.16;100.00;93355.28;1068080;55;20281;-84
2020/12/19 02:02:02;;;;;;;;;;;;;;;-1.17;100.00;93345.88;1063810;55;20646;-83
2020/12/19 02:03:02;;;;;;;;;;;;;;;-1.16;100.00;93350.03;1066525;55;20649;-84
2020/12/19 02:04:03;;;;;;;;;;;;;;;-1.15;100.00;93356.78;1063883;55;20185;-84
2020/12/19 02:05:03;;;;;;;;;;;;;;;-1.19;100.00;93348.06;1066057;55;20250;-85
2020/12/19 02:06:04;;;;;;;;;;;;;;;-1.20;100.00;93354.41;1066141;55;20677;-84
2020/12/19 02:07:05;;;;;;;;;;;;;;;-1.28;100.00;93354.22;1066136;55;20674;-84
2020/12/19 02:08:06;;;;;;;;;;;;;;;-1.26;100.00;93348.66;1068330;55;20296;-85
2020/12/19 02:09:06;;;;;;;;;;;;;;;-1.23;100.00;93352.47;1065864;55;20660;-84
2020/12/19 02:10:13;;;;;;;;;;;;;;;-1.21;100.00;93351.03;1063802;55;20199;-85
2020/12/19 02:11:32;;;;;;;;;;;;;;;-1.13;100.00;93352.00;1066235;55;21476;-85
2020/12/19 02:12:34;;;;;;;;;;;;;;;-1.12;100.00;93350.88;1068270;55;20184;-86
2020/12/19 02:13:34;;;;;;;;;;;;;;;-1.20;100.00;93344.69;1066001;55;20165;-83
2020/12/19 02:14:35;;;;;;;;;;;;;;;-1.15;100.00;93341.81;1063832;55;20247;-86
2020/12/19 02:15:39;;;;;;;;;;;;;;;-1.21;100.00;93348.41;1063954;55;20158;-86
2020/12/19 02:16:51;;;;;;;;;;;;;;;-1.11;100.00;93341.91;1066307;55;20622;-84
2020/12/19 02:17:52;;;;;;;;;;;;;;;-1.07;100.00;93334.91;1064173;55;20643;-86
2020/12/19 02:18:53;;;;;;;;;;;;;;;-1.12;100.00;93338.53;1064013;55;20162;-83
2020/12/19 02:19:53;;;;;;;;;;;;;;;-1.12;100.00;93332.53;1065998;55;20248;-85
2020/12/19 02:20:54;;;;;;;;;;;;;;;-1.12;100.00;93341.16;1068099;55;20158;-84
2020/12/19 02:21:56;;;;;;;;;;;;;;;-1.16;100.00;93331.66;1065950;55;20679;-84
2020/12/19 02:22:57;;;;;;;;;;;;;;;-1.23;100.00;93340.09;1063990;55;20185;-84
2020/12/19 02:23:57;;;;;;;;;;;;;;;-1.20;100.00;93334.19;1065955;55;20201;-84
2020/12/19 02:24:58;;;;;;;;;;;;;;;-1.09;100.00;93332.63;1064020;55;20673;-84
2020/12/19 02:25:58;;;;;;;;;;;;;;;-1.10;100.00;93327.69;1061677;56;20174;-84
2020/12/19 02:26:59;;;;;;;;;;;;;;;-1.04;100.00;93329.75;1063843;55;20162;-85
2020/12/19 02:28:03;;;;;;;;;;;;;;;-1.03;100.00;93328.62;1068195;55;20156;-84
2020/12/19 02:29:05;;;;;;;;;;;;;;;-1.08;100.00;93323.66;1070184;55;20211;-86
2020/12/19 02:30:07;;;;;;;;;;;;;;;-1.12;100.00;93322.78;1068138;55;20157;-85
2020/12/19 02:31:09;;;;;;;;;;;;;;;-1.16;100.00;93331.66;1065828;55;20166;-85
2020/12/19 02:32:10;;;;;;;;;;;;;;;-1.16;100.00;93329.81;1063936;55;20169;-85
2020/12/19 02:33:10;;;;;;;;;;;;;;;-1.20;100.00;93333.44;1068168;55;20184;-83
2020/12/19 02:34:11;;;;;;;;;;;;;;;-1.26;100.00;93330.31;1065710;55;20213;-86
2020/12/19 02:35:12;;;;;;;;;;;;;;;-1.30;100.00;93327.59;1063518;55;20593;-84
2020/12/19 02:36:13;;;;;;;;;;;;;;;-1.32;100.00;93331.63;1067985;55;20160;-84
2020/12/19 02:37:15;;;;;;;;;;;;;;;-1.32;100.00;93326.38;1070197;55;20184;-87
2020/12/19 02:38:16;;;;;;;;;;;;;;;-1.35;100.00;93321.84;1065718;55;20161;-84
2020/12/19 02:39:16;;;;;;;;;;;;;;;-1.35;100.00;93327.84;1067893;55;20157;-85
2020/12/19 02:40:17;;;;;;;;;;;;;;;-1.39;100.00;93319.13;1070260;55;20176;-84
2020/12/19 02:41:18;;;;;;;;;;;;;;;-1.39;100.00;93313.09;1068034;55;20195;-84
2020/12/19 02:42:19;;;;;;;;;;;;;;;-1.44;100.00;93313.34;1063749;55;20177;-84
2020/12/19 02:43:21;;;;;;;;;;;;;;;-1.43;100.00;93315.63;1066223;55;20298;-83
2020/12/19 02:44:22;;;;;;;;;;;;;;;-1.50;100.00;93330.41;1065875;55;20680;-85
2020/12/19 02:45:23;;;;;;;;;;;;;;;-1.52;100.00;93328.12;1063962;55;20177;-85
2020/12/19 02:46:23;;;;;;;;;;;;;;;-1.50;100.00;93323.31;1063744;56;20661;-85
2020/12/19 02:47:24;;;;;;;;;;;;;;;-1.47;100.00;93330.50;1066006;55;20141;-86
2020/12/19 02:48:24;;;;;;;;;;;;;;;-1.50;100.00;93319.91;1065752;55;20673;-86
2020/12/19 02:49:25;;;;;;;;;;;;;;;-1.53;100.00;93324.75;1063712;56;20201;-86
2020/12/19 02:50:25;;;;;;;;;;;;;;;-1.52;100.00;93323.66;1063780;55;20158;-85
2020/12/19 02:51:26;;;;;;;;;;;;;;;-1.56;100.00;93325.41;1065765;55;20559;-84
2020/12/19 02:52:28;;;;;;;;;;;;;;;-1.49;100.00;93326.69;1063739;55;20196;-85
2020/12/19 02:53:29;;;;;;;;;;;;;;;-1.54;100.00;93318.00;1062014;55;20712;-83
2020/12/19 02:54:30;;;;;;;;;;;;;;;-1.57;100.00;93323.13;1066053;55;20165;-85
2020/12/19 02:55:30;;;;;;;;;;;;;;;-1.56;100.00;93324.66;1065981;55;20184;-85
2020/12/19 02:56:31;;;;;;;;;;;;;;;-1.57;100.00;93320.50;1063836;56;20161;-85
2020/12/19 02:57:31;;;;;;;;;;;;;;;-1.55;100.00;93320.91;1065805;55;20593;-83
2020/12/19 02:58:32;;;;;;;;;;;;;;;-1.53;100.00;93314.25;1065886;55;20626;-84
2020/12/19 02:59:33;;;;;;;;;;;;;;;-1.53;100.00;93313.50;1066094;55;20232;-84
2020/12/19 03:00:34;;;;;;;;;;;;;;;-1.54;100.00;93311.97;1066112;55;20663;-83
2020/12/19 03:01:34;;;;;;;;;;;;;;;-1.58;100.00;93311.09;1065924;55;20161;-85
2020/12/19 03:02:37;;;;;;;;;;;;;;;-1.55;100.00;93307.81;1068116;55;20192;-85
2020/12/19 03:03:38;;;;;;;;;;;;;;;-1.57;100.00;93307.41;1068726;55;22208;-86
2020/12/19 03:04:38;;;;;;;;;;;;;;;-1.52;100.00;93317.63;1065943;55;20173;-85
2020/12/19 03:05:39;;;;;;;;;;;;;;;-1.52;100.00;93307.91;1065948;55;20169;-84
2020/12/19 03:06:40;;;;;;;;;;;;;;;-1.53;100.00;93308.25;1066042;55;20623;-85
2020/12/19 03:07:40;;;;;;;;;;;;;;;-1.48;100.00;93304.62;1066109;55;20663;-84
2020/12/19 03:08:41;;;;;;;;;;;;;;;-1.44;100.00;93303.63;1068272;55;20164;-86
2020/12/19 03:09:41;;;;;;;;;;;;;;;-1.43;100.00;93304.38;1068071;55;20179;-85
2020/12/19 03:10:43;;;;;;;;;;;;;;;-1.47;100.00;93314.78;1065727;55;20263;-83
2020/12/19 03:11:44;;;;;;;;;;;;;;;-1.35;100.00;93316.59;1065907;55;20192;-85
2020/12/19 03:12:44;;;;;;;;;;;;;;;-1.38;100.00;93304.91;1068147;55;20173;-85
2020/12/19 03:13:45;;;;;;;;;;;;;;;-1.41;100.00;93305.56;1063907;56;20178;-86
2020/12/19 03:14:45;;;;;;;;;;;;;;;-1.43;100.00;93304.38;1059497;56;20288;-86
2020/12/19 03:15:46;;;;;;;;;;;;;;;-1.47;100.00;93304.28;1061609;56;20185;-83
2020/12/19 03:16:46;;;;;;;;;;;;;;;-1.50;100.00;93298.94;1063635;56;20247;-84
2020/12/19 03:17:47;;;;;;;;;;;;;;;-1.50;100.00;93298.94;1067892;55;20176;-84
2020/12/19 03:18:47;;;;;;;;;;;;;;;-1.49;100.00;93295.22;1068012;55;20180;-85
2020/12/19 03:19:48;;;;;;;;;;;;;;;-1.57;100.00;93292.44;1065883;55;20326;-84
2020/12/19 03:20:48;;;;;;;;;;;;;;;-1.55;100.00;93300.72;1068192;55;20200;-85
2020/12/19 03:21:49;;;;;;;;;;;;;;;-1.57;100.00;93302.16;1064254;55;20158;-85
2020/12/19 03:22:50;;;;;;;;;;;;;;;-1.60;100.00;93289.72;1063792;55;20170;-83
2020/12/19 03:23:51;;;;;;;;;;;;;;;-1.55;100.00;93295.47;1068126;55;20188;-85
2020/12/19 03:24:52;;;;;;;;;;;;;;;-1.58;100.00;93293.53;1070282;55;20968;-84
2020/12/19 03:25:52;;;;;;;;;;;;;;;-1.60;100.00;93297.56;1065814;55;20247;-83
2020/12/19 03:26:53;;;;;;;;;;;;;;;-1.60;100.00;93289.72;1065963;55;20169;-84
2020/12/19 03:27:53;;;;;;;;;;;;;;;-1.69;100.00;93295.09;1070070;55;20157;-84
2020/12/19 03:28:54;;;;;;;;;;;;;;;-1.70;100.00;93298.81;1068254;55;20652;-84
2020/12/19 03:29:54;;;;;;;;;;;;;;;-1.72;100.00;93293.13;1068015;55;20161;-86
2020/12/19 03:30:55;;;;;;;;;;;;;;;-1.70;100.00;93290.97;1067941;55;20244;-83
2020/12/19 03:31:56;;;;;;;;;;;;;;;-1.63;100.00;93290.38;1063898;55;20190;-84
2020/12/19 03:32:57;;;;;;;;;;;;;;;-1.62;100.00;93297.91;1067887;55;20158;-84
2020/12/19 03:33:57;;;;;;;;;;;;;;;-1.54;100.00;93293.59;1068035;55;20585;-85
2020/12/19 03:34:58;;;;;;;;;;;;;;;-1.57;100.00;93305.53;1066334;55;20203;-85
2020/12/19 03:35:59;;;;;;;;;;;;;;;-1.63;100.00;93299.00;1066399;55;20157;-84
2020/12/19 03:37:00;;;;;;;;;;;;;;;-1.67;100.00;93295.53;1066101;55;20166;-84
2020/12/19 03:38:01;;;;;;;;;;;;;;;-1.66;100.00;93288.44;1068342;55;20699;-84
2020/12/19 03:39:01;;;;;;;;;;;;;;;-1.64;100.00;93289.62;1068234;55;20284;-83
2020/12/19 03:40:02;;;;;;;;;;;;;;;-1.63;100.00;93298.25;1070465;55;20183;-84
2020/12/19 03:41:03;;;;;;;;;;;;;;;-1.65;100.00;93293.34;1068396;55;20161;-83
2020/12/19 03:42:04;;;;;;;;;;;;;;;-1.70;100.00;93296.19;1066005;55;20154;-85
2020/12/19 03:43:04;;;;;;;;;;;;;;;-1.68;100.00;93288.00;1065963;55;20185;-84
2020/12/19 03:44:05;;;;;;;;;;;;;;;-1.69;100.00;93292.47;1063817;55;20158;-83
2020/12/19 03:45:06;;;;;;;;;;;;;;;-1.69;100.00;93297.72;1068178;55;20765;-86
2020/12/19 03:46:10;;;;;;;;;;;;;;;-1.66;100.00;93291.81;1070550;55;20223;-85
2020/12/19 03:47:12;;;;;;;;;;;;;;;-1.77;100.00;93288.91;1066070;55;20929;-83
2020/12/19 03:48:12;;;;;;;;;;;;;;;-1.73;100.00;93286.37;1066050;55;20170;-84
2020/12/19 03:49:13;;;;;;;;;;;;;;;-1.68;100.00;93282.75;1068409;55;20178;-85
2020/12/19 03:50:13;;;;;;;;;;;;;;;-1.69;100.00;93281.25;1066052;55;20158;-84
2020/12/19 03:51:14;;;;;;;;;;;;;;;-1.84;100.00;93283.50;1063801;55;20667;-84
2020/12/19 03:52:14;;;;;;;;;;;;;;;-1.79;100.00;93272.75;1063803;55;20154;-85
2020/12/19 03:53:15;;;;;;;;;;;;;;;-1.76;100.00;93281.81;1066129;55;20226;-86
2020/12/19 03:54:16;;;;;;;;;;;;;;;-1.72;100.00;93287.13;1066032;55;20157;-85
2020/12/19 03:55:16;;;;;;;;;;;;;;;-1.63;100.00;93279.91;1068304;55;20157;-86
2020/12/19 03:56:17;;;;;;;;;;;;;;;-1.76;100.00;93276.56;1068200;55;20162;-84
2020/12/19 03:57:18;;;;;;;;;;;;;;;-1.82;100.00;93283.91;1070514;55;20249;-84
2020/12/19 03:58:19;;;;;;;;;;;;;;;-1.85;100.00;93279.31;1066089;55;20182;-84
2020/12/19 03:59:21;;;;;;;;;;;;;;;-1.80;100.00;93276.50;1063900;55;20150;-83
2020/12/19 04:00:22;;;;;;;;;;;;;;;-1.77;100.00;93281.03;1064027;55;20646;-85
2020/12/19 04:01:22;;;;;;;;;;;;;;;-1.80;100.00;93279.09;1068397;55;20633;-84
2020/12/19 04:02:23;;;;;;;;;;;;;;;-1.77;100.00;93275.81;1070635;55;20970;-85
2020/12/19 04:03:23;;;;;;;;;;;;;;;-1.75;100.00;93283.34;1068354;55;20156;-84
2020/12/19 04:04:24;;;;;;;;;;;;;;;-1.74;100.00;93273.63;1068158;55;20157;-84
2020/12/19 04:05:24;;;;;;;;;;;;;;;-1.82;100.00;93272.66;1068316;55;20180;-84
2020/12/19 04:06:25;;;;;;;;;;;;;;;-1.81;100.00;93274.94;1066104;55;20153;-85
2020/12/19 04:07:25;;;;;;;;;;;;;;;-1.70;100.00;93275.25;1066113;55;20633;-83
2020/12/19 04:08:26;;;;;;;;;;;;;;;-1.71;100.00;93278.19;1068342;55;20216;-85
2020/12/19 04:09:27;;;;;;;;;;;;;;;-1.73;100.00;93275.91;1068147;55;20613;-85
2020/12/19 04:10:27;;;;;;;;;;;;;;;-1.79;100.00;93272.75;1068061;55;20200;-84
2020/12/19 04:11:28;;;;;;;;;;;;;;;-1.73;100.00;93272.53;1068260;55;20161;-85
2020/12/19 04:12:28;;;;;;;;;;;;;;;-1.80;100.00;93266.00;1068396;55;20736;-84
2020/12/19 04:13:29;;;;;;;;;;;;;;;-1.77;100.00;93275.81;1064075;55;20154;-84
2020/12/19 04:14:39;;;;;;;;;;;;;;;-1.76;100.00;93266.09;1061879;56;20166;-84
2020/12/19 04:15:40;;;;;;;;;;;;;;;-1.82;100.00;93273.44;1068645;55;20610;-83
2020/12/19 04:16:41;;;;;;;;;;;;;;;-1.82;100.00;93267.44;1068213;55;20250;-84
2020/12/19 04:17:41;;;;;;;;;;;;;;;-1.84;100.00;93272.25;1066121;55;20165;-85
2020/12/19 04:18:42;;;;;;;;;;;;;;;-1.87;100.00;93271.03;1066263;55;20187;-84
2020/12/19 04:19:42;;;;;;;;;;;;;;;-1.85;100.00;93268.09;1066060;55;20149;-85
2020/12/19 04:20:43;;;;;;;;;;;;;;;-1.87;100.00;93268.44;1068379;55;20149;-84
2020/12/19 04:21:43;;;;;;;;;;;;;;;-1.85;100.00;93266.22;1068226;55;20177;-86
2020/12/19 04:22:44;;;;;;;;;;;;;;;-1.83;100.00;93263.28;1065855;55;20161;-85
2020/12/19 04:23:44;;;;;;;;;;;;;;;-1.88;100.00;93269.53;1066248;55;20161;-84
2020/12/19 04:24:45;;;;;;;;;;;;;;;-1.92;100.00;93257.44;1068188;55;20248;-84
2020/12/19 04:25:46;;;;;;;;;;;;;;;-1.96;100.00;93262.56;1068200;55;20633;-85
2020/12/19 04:26:46;;;;;;;;;;;;;;;-1.95;100.00;93256.22;1065972;55;20188;-84
2020/12/19 04:27:47;;;;;;;;;;;;;;;-1.95;100.00;93258.09;1068260;55;20164;-83
2020/12/19 04:28:47;;;;;;;;;;;;;;;-1.93;100.00;93261.13;1066181;55;20250;-84
2020/12/19 04:29:48;;;;;;;;;;;;;;;-1.98;100.00;93259.50;1066136;55;20707;-86
2020/12/19 04:30:49;;;;;;;;;;;;;;;-1.99;100.00;93260.59;1064093;55;20150;-85
2020/12/19 04:31:50;;;;;;;;;;;;;;;-1.97;100.00;93250.56;1066099;55;20672;-85
2020/12/19 04:32:51;;;;;;;;;;;;;;;-1.96;100.00;93248.72;1068535;55;20161;-84
2020/12/19 04:33:52;;;;;;;;;;;;;;;-2.05;100.00;93252.22;1065880;55;20145;-84
2020/12/19 04:34:52;;;;;;;;;;;;;;;-2.03;100.00;93255.25;1064007;55;20654;-84
2020/12/19 04:35:53;;;;;;;;;;;;;;;-2.05;100.00;93244.38;1065993;55;20625;-86
2020/12/19 04:36:55;;;;;;;;;;;;;;;-2.06;100.00;93250.72;1063933;55;20162;-84
2020/12/19 04:37:56;;;;;;;;;;;;;;;-2.03;100.00;93250.03;1061803;56;20150;-85
2020/12/19 04:38:56;;;;;;;;;;;;;;;-2.04;100.00;93248.50;1066049;55;20177;-86
2020/12/19 04:39:58;;;;;;;;;;;;;;;-2.07;100.00;93248.41;1066448;55;20644;-85
2020/12/19 04:40:59;;;;;;;;;;;;;;;-2.08;100.00;93252.12;1068322;55;20173;-86
2020/12/19 04:42:00;;;;;;;;;;;;;;;-2.07;100.00;93246.53;1070767;55;20157;-84
2020/12/19 04:43:11;;;;;;;;;;;;;;;-2.06;100.00;93242.09;1066152;55;20250;-84
2020/12/19 04:44:12;;;;;;;;;;;;;;;-2.03;100.00;93249.28;1064940;55;20169;-85
2020/12/19 04:45:12;;;;;;;;;;;;;;;-2.01;100.00;93249.72;1063881;55;20154;-85
2020/12/19 04:46:16;;;;;;;;;;;;;;;-2.03;100.00;93246.66;1064027;55;20251;-84
2020/12/19 04:47:17;;;;;;;;;;;;;;;-2.01;100.00;93244.47;1066304;55;20180;-85
2020/12/19 04:48:17;;;;;;;;;;;;;;;-1.98;100.00;93243.78;1066023;55;20141;-85
2020/12/19 04:49:19;;;;;;;;;;;;;;;-2.03;100.00;93239.56;1066382;55;20187;-85
2020/12/19 04:50:22;;;;;;;;;;;;;;;-1.97;100.00;93244.56;1066201;55;20192;-85
2020/12/19 04:51:24;;;;;;;;;;;;;;;-1.96;100.00;93246.09;1064276;55;20155;-86
2020/12/19 04:52:25;;;;;;;;;;;;;;;-1.99;100.00;93247.50;1066069;55;20657;-85
2020/12/19 04:53:26;;;;;;;;;;;;;;;-2.01;100.00;93246.34;1064058;55;20253;-83
2020/12/19 04:54:28;;;;;;;;;;;;;;;-2.04;100.00;93248.50;1066016;55;20158;-84
2020/12/19 04:55:28;;;;;;;;;;;;;;;-2.07;100.00;93246.53;1066165;55;20240;-85
2020/12/19 04:56:29;;;;;;;;;;;;;;;-2.07;100.00;93246.53;1066283;55;20177;-87
2020/12/19 04:57:30;;;;;;;;;;;;;;;-2.03;100.00;93244.03;1066416;55;20157;-84
2020/12/19 04:58:30;;;;;;;;;;;;;;;-2.03;100.00;93236.94;1063918;55;20154;-85
2020/12/19 04:59:31;;;;;;;;;;;;;;;-2.05;100.00;93248.84;1063828;55;20173;-84
2020/12/19 05:00:31;;;;;;;;;;;;;;;-2.05;100.00;93241.75;1064084;55;20153;-84
2020/12/19 05:01:33;;;;;;;;;;;;;;;-2.01;100.00;93243.72;1068294;55;20590;-83
2020/12/19 05:02:33;;;;;;;;;;;;;;;-2.00;100.00;93245.22;1068196;55;20160;-83
2020/12/19 05:03:34;;;;;;;;;;;;;;;-1.97;100.00;93245.34;1066151;55;20173;-84
2020/12/19 05:04:38;;;;;;;;;;;;;;;-1.95;100.00;93245.75;1068296;55;20149;-85
2020/12/19 05:05:42;;;;;;;;;;;;;;;-1.96;100.00;93243.47;1066121;55;20204;-85
2020/12/19 05:06:45;;;;;;;;;;;;;;;-1.89;100.00;93248.87;1066483;55;20170;-84
2020/12/19 05:07:45;;;;;;;;;;;;;;;-1.98;100.00;93246.41;1070788;55;20145;-85
2020/12/19 05:08:46;;;;;;;;;;;;;;;-2.02;100.00;93248.16;1068261;55;20157;-86
2020/12/19 05:09:46;;;;;;;;;;;;;;;-1.97;100.00;93249.81;1066112;55;20689;-87
2020/12/19 05:10:48;;;;;;;;;;;;;;;-1.93;100.00;93250.66;1063678;55;20657;-86
2020/12/19 05:11:50;;;;;;;;;;;;;;;-1.98;100.00;93246.41;1064587;55;20267;-85
2020/12/19 05:12:54;;;;;;;;;;;;;;;-1.95;100.00;93247.63;1066114;55;20192;-85
2020/12/19 05:13:56;;;;;;;;;;;;;;;-1.97;100.00;93242.72;1064918;55;20166;-86
2020/12/19 05:14:56;;;;;;;;;;;;;;;-2.05;100.00;93241.00;1066156;55;20605;-85